createdAt,value
2019-03-28T00:01:09.958Z,13.27
2019-03-28T00:03:38.095Z,13.13
2019-03-28T00:06:05.869Z,12.90
2019-03-28T00:08:33.599Z,11.80
2019-03-28T00:11:01.717Z,13.07
2019-03-28T00:13:30.110Z,13.43
2019-03-28T00:15:58.421Z,14.47
2019-03-28T00:18:26.387Z,13.73
2019-03-28T00:20:54.099Z,13.20
2019-03-28T00:23:27.915Z,12.40
2019-03-28T00:25:56.367Z,12.53
2019-03-28T00:28:24.383Z,11.87
2019-03-28T00:30:52.231Z,12.67
2019-03-28T00:33:20.339Z,13.73
2019-03-28T00:35:48.431Z,15.00
2019-03-28T00:38:16.539Z,14.63
2019-03-28T00:40:44.419Z,14.17
2019-03-28T00:43:12.175Z,12.37
2019-03-28T00:45:39.920Z,13.63
2019-03-28T00:48:08.280Z,12.77
2019-03-28T00:50:36.340Z,13.63
2019-03-28T00:53:04.444Z,14.13
2019-03-28T00:55:32.083Z,14.10
2019-03-28T00:57:59.812Z,13.73
2019-03-28T01:00:27.825Z,13.80
2019-03-28T01:02:55.573Z,14.47
2019-03-28T01:05:23.303Z,12.77
2019-03-28T01:07:51.031Z,12.73
2019-03-28T01:10:19.116Z,13.70
2019-03-28T01:12:46.880Z,12.50
2019-03-28T01:15:14.660Z,15.07
2019-03-28T01:17:42.444Z,14.83
2019-03-28T01:20:12.039Z,15.07
2019-03-28T01:22:40.423Z,15.53
2019-03-28T01:25:08.243Z,13.53
2019-03-28T01:27:36.250Z,14.87
2019-03-28T01:30:04.803Z,14.60
2019-03-28T01:32:32.826Z,14.80
2019-03-28T01:35:00.615Z,15.00
2019-03-28T01:37:29.230Z,15.07
2019-03-28T01:39:57.467Z,14.37
2019-03-28T01:42:25.239Z,13.87
2019-03-28T01:44:53.003Z,14.63
2019-03-28T01:47:21.491Z,15.03
2019-03-28T01:49:50.151Z,14.13
2019-03-28T01:52:18.771Z,13.47
2019-03-28T01:54:46.949Z,14.10
2019-03-28T01:57:14.922Z,13.93
2019-03-28T01:59:42.631Z,15.73
2019-03-28T02:02:10.419Z,15.00
2019-03-28T02:04:38.654Z,14.17
2019-03-28T02:07:06.779Z,14.67
2019-03-28T02:09:35.203Z,15.17
2019-03-28T02:12:03.090Z,14.60
2019-03-28T02:14:30.828Z,14.67
2019-03-28T02:16:58.573Z,14.53
2019-03-28T02:19:26.334Z,15.00
2019-03-28T02:21:54.072Z,14.00
2019-03-28T02:24:21.691Z,13.93
2019-03-28T02:26:50.095Z,14.23
2019-03-28T02:29:19.055Z,14.87
2019-03-28T02:31:47.171Z,14.10
2019-03-28T02:34:15.181Z,14.03
2019-03-28T02:36:44.147Z,15.03
2019-03-28T02:39:13.171Z,15.03
2019-03-28T02:41:40.908Z,15.50
2019-03-28T02:44:09.570Z,15.13
2019-03-28T02:46:38.383Z,15.90
2019-03-28T02:49:06.370Z,15.40
2019-03-28T02:51:34.441Z,14.23
2019-03-28T02:54:02.211Z,15.47
2019-03-28T02:56:30.588Z,15.90
2019-03-28T02:58:59.179Z,15.37
2019-03-28T03:01:30.152Z,14.93
2019-03-28T03:03:56.891Z,15.53
2019-03-28T03:06:24.645Z,16.47
2019-03-28T03:08:52.372Z,16.10
2019-03-28T03:11:20.639Z,15.97
2019-03-28T03:13:48.660Z,16.90
2019-03-28T03:16:16.785Z,15.43
2019-03-28T03:18:44.528Z,15.63
2019-03-28T03:21:12.267Z,16.87
2019-03-28T03:23:39.992Z,16.20
2019-03-28T03:26:07.708Z,15.70
2019-03-28T03:28:35.449Z,14.70
2019-03-28T03:31:03.834Z,15.93
2019-03-28T03:33:32.153Z,16.23
2019-03-28T03:35:59.850Z,15.57
2019-03-28T03:38:27.928Z,16.50
2019-03-28T03:40:55.966Z,17.33
2019-03-28T03:43:24.910Z,17.20
2019-03-28T03:45:53.468Z,16.23
2019-03-28T03:48:21.931Z,16.43
2019-03-28T03:50:49.992Z,16.17
2019-03-28T03:53:17.745Z,17.43
2019-03-28T03:55:45.615Z,16.73
2019-03-28T03:58:16.081Z,17.10
2019-03-28T04:00:43.263Z,16.87
2019-03-28T04:03:11.307Z,17.53
2019-03-28T04:05:39.053Z,17.30
2019-03-28T04:08:06.805Z,16.27
2019-03-28T04:10:34.828Z,17.30
2019-03-28T04:13:02.915Z,16.93
2019-03-28T04:15:31.384Z,17.93
2019-03-28T04:17:59.770Z,16.83
2019-03-28T04:20:27.645Z,17.67
2019-03-28T04:22:55.393Z,18.67
2019-03-28T04:25:23.801Z,18.40
2019-03-28T04:27:51.548Z,18.30
2019-03-28T04:30:19.261Z,18.37
2019-03-28T04:32:47.027Z,18.20
2019-03-28T04:35:15.583Z,18.93
2019-03-28T04:37:43.609Z,17.60
2019-03-28T04:40:11.722Z,17.23
2019-03-28T04:42:39.921Z,17.47
2019-03-28T04:45:07.828Z,19.07
2019-03-28T04:47:36.351Z,18.83
2019-03-28T04:50:04.731Z,19.07
2019-03-28T04:52:32.474Z,18.33
2019-03-28T04:55:00.141Z,18.50
2019-03-28T04:57:28.486Z,19.20
2019-03-28T04:59:56.947Z,18.83
2019-03-28T05:02:24.669Z,18.50
2019-03-28T05:04:52.623Z,18.67
2019-03-28T05:07:21.023Z,17.10
2019-03-28T05:09:49.906Z,18.20
2019-03-28T05:12:18.812Z,19.03
2019-03-28T05:14:46.890Z,19.00
2019-03-28T05:17:14.612Z,18.43
2019-03-28T05:19:42.373Z,18.90
2019-03-28T05:22:10.476Z,16.93
2019-03-28T05:24:38.567Z,19.13
2019-03-28T05:27:06.419Z,17.53
2019-03-28T05:29:35.166Z,18.20
2019-03-28T05:32:02.927Z,17.40
2019-03-28T05:34:30.710Z,18.07
2019-03-28T05:36:58.775Z,17.50
2019-03-28T05:39:26.854Z,18.47
2019-03-28T05:41:54.595Z,17.20
2019-03-28T05:44:22.306Z,18.03
2019-03-28T05:46:50.061Z,17.30
2019-03-28T05:49:17.838Z,16.73
2019-03-28T05:51:46.225Z,19.00
2019-03-28T05:54:14.325Z,18.20
2019-03-28T05:56:42.400Z,20.13
2019-03-28T05:59:11.448Z,19.67
2019-03-28T06:01:39.471Z,19.33
2019-03-28T06:04:07.127Z,21.07
2019-03-28T06:06:34.736Z,19.27
2019-03-28T06:09:04.530Z,18.33
2019-03-28T06:11:32.913Z,19.93
2019-03-28T06:14:01.294Z,19.93
2019-03-28T06:16:29.005Z,18.73
2019-03-28T06:18:57.099Z,20.47
2019-03-28T06:21:24.829Z,20.47
2019-03-28T06:23:53.273Z,19.20
2019-03-28T06:26:21.019Z,20.07
2019-03-28T06:28:49.414Z,19.50
2019-03-28T06:31:17.136Z,21.50
2019-03-28T06:33:44.870Z,20.77
2019-03-28T06:36:12.650Z,19.73
2019-03-28T06:38:41.042Z,21.43
2019-03-28T06:41:09.131Z,20.60
2019-03-28T06:43:36.886Z,20.07
2019-03-28T06:46:05.006Z,21.77
2019-03-28T06:48:33.439Z,20.73
2019-03-28T06:51:01.196Z,21.67
2019-03-28T06:53:29.322Z,21.80
2019-03-28T06:55:57.664Z,23.70
2019-03-28T06:58:25.640Z,22.07
2019-03-28T07:00:53.435Z,21.43
2019-03-28T07:03:21.466Z,21.73
2019-03-28T07:05:49.560Z,21.73
2019-03-28T07:08:17.269Z,22.27
2019-03-28T07:10:45.713Z,21.87
2019-03-28T07:13:13.767Z,22.60
2019-03-28T07:15:41.790Z,21.17
2019-03-28T07:18:09.500Z,21.57
2019-03-28T07:20:37.898Z,22.20
2019-03-28T07:23:05.738Z,22.07
2019-03-28T07:25:33.954Z,22.53
2019-03-28T07:28:01.902Z,21.73
2019-03-28T07:30:30.027Z,24.47
2019-03-28T07:32:58.093Z,24.80
2019-03-28T07:35:27.039Z,24.53
2019-03-28T07:37:55.274Z,24.40
2019-03-28T07:40:23.387Z,24.53
2019-03-28T07:42:51.729Z,25.37
2019-03-28T07:45:20.110Z,23.10
2019-03-28T07:47:47.829Z,25.10
2019-03-28T07:50:15.919Z,24.67
2019-03-28T07:52:43.706Z,25.15
2019-03-28T07:55:16.168Z,23.93
2019-03-28T07:57:42.703Z,23.50
2019-03-28T08:00:11.104Z,25.48
2019-03-28T08:02:39.513Z,24.87
2019-03-28T08:05:09.794Z,26.10
2019-03-28T08:07:45.087Z,26.80
2019-03-28T08:10:08.472Z,25.55
2019-03-28T08:12:36.828Z,25.15
2019-03-28T08:15:06.107Z,25.10
2019-03-28T08:17:34.231Z,26.70
2019-03-28T08:20:02.322Z,25.43
2019-03-28T08:22:30.409Z,27.40
2019-03-28T08:24:58.445Z,26.07
2019-03-28T08:27:26.578Z,26.85
2019-03-28T08:29:57.721Z,26.55
2019-03-28T08:32:25.911Z,26.35
2019-03-28T08:34:53.887Z,27.22
2019-03-28T08:37:23.689Z,25.20
2019-03-28T08:39:51.427Z,27.10
2019-03-28T08:42:19.665Z,25.92
2019-03-28T08:44:47.976Z,24.72
2019-03-28T08:47:16.140Z,26.25
2019-03-28T08:49:43.754Z,26.87
2019-03-28T08:52:12.026Z,25.82
2019-03-28T08:54:39.863Z,27.48
2019-03-28T08:57:07.928Z,26.50
2019-03-28T08:59:35.643Z,27.25
2019-03-28T09:02:05.117Z,26.93
2019-03-28T09:04:34.069Z,26.65
2019-03-28T09:07:02.187Z,27.27
2019-03-28T09:09:30.223Z,28.45
2019-03-28T09:11:58.005Z,28.07
2019-03-28T09:14:25.871Z,27.35
2019-03-28T09:16:53.920Z,27.73
2019-03-28T09:19:22.257Z,28.38
2019-03-28T09:21:50.019Z,29.70
2019-03-28T09:24:18.419Z,28.65
2019-03-28T09:26:47.577Z,29.12
2019-03-28T09:29:15.290Z,28.47
2019-03-28T09:31:43.403Z,29.10
2019-03-28T09:34:11.523Z,27.52
2019-03-28T09:36:39.357Z,29.30
2019-03-28T09:39:08.854Z,28.20
2019-03-28T09:41:36.884Z,28.40
2019-03-28T09:44:04.973Z,29.50
2019-03-28T09:46:32.730Z,29.32
2019-03-28T09:49:00.805Z,30.10
2019-03-28T09:51:28.854Z,30.27
2019-03-28T09:53:57.270Z,28.60
2019-03-28T09:56:24.986Z,29.70
2019-03-28T09:58:54.136Z,29.32
2019-03-28T10:01:21.906Z,31.15
2019-03-28T10:03:49.990Z,29.18
2019-03-28T10:06:17.741Z,29.80
2019-03-28T10:08:45.532Z,29.37
2019-03-28T10:11:13.585Z,28.75
2019-03-28T10:13:41.558Z,29.63
2019-03-28T10:16:09.768Z,29.70
2019-03-28T10:18:37.924Z,30.70
2019-03-28T10:21:05.803Z,30.77
2019-03-28T10:23:33.979Z,30.32
2019-03-28T10:26:02.703Z,29.95
2019-03-28T10:28:30.434Z,28.77
2019-03-28T10:30:58.143Z,30.00
2019-03-28T10:33:26.285Z,29.40
2019-03-28T10:35:54.511Z,28.57
2019-03-28T10:38:22.207Z,30.05
2019-03-28T10:40:50.243Z,32.05
2019-03-28T10:43:18.300Z,30.55
2019-03-28T10:45:46.026Z,28.45
2019-03-28T10:48:14.030Z,29.12
2019-03-28T10:50:45.541Z,29.98
2019-03-28T10:53:13.783Z,29.42
2019-03-28T10:55:42.550Z,29.85
2019-03-28T10:58:18.911Z,29.42
2019-03-28T11:00:40.684Z,27.60
2019-03-28T11:03:08.543Z,28.55
2019-03-28T11:05:36.673Z,27.45
2019-03-28T11:08:04.661Z,23.73
2019-03-28T11:10:33.244Z,22.77
2019-03-28T11:13:01.322Z,22.70
2019-03-28T11:15:29.053Z,21.20
2019-03-28T11:17:58.310Z,21.35
2019-03-28T11:20:26.143Z,22.13
2019-03-28T11:22:54.142Z,22.62
2019-03-28T11:25:21.901Z,19.10
2019-03-28T11:27:49.725Z,21.30
2019-03-28T11:30:18.668Z,21.95
2019-03-28T11:32:46.482Z,21.17
2019-03-28T11:35:14.590Z,19.70
2019-03-28T11:37:42.618Z,19.50
2019-03-28T11:40:10.566Z,18.17
2019-03-28T11:42:41.064Z,17.42
2019-03-28T11:45:09.999Z,17.92
2019-03-28T11:47:38.503Z,18.25
2019-03-28T11:50:08.480Z,18.12
2019-03-28T11:52:39.002Z,19.15
2019-03-28T11:55:07.595Z,17.52
2019-03-28T11:57:35.401Z,17.10
2019-03-28T12:00:05.903Z,15.90
2019-03-28T12:02:34.326Z,14.83
2019-03-28T12:05:02.093Z,14.45
2019-03-28T12:07:29.912Z,15.32
2019-03-28T12:09:57.742Z,13.15
2019-03-28T12:12:25.805Z,14.10
2019-03-28T12:14:53.595Z,15.00
2019-03-28T12:17:21.499Z,13.10
2019-03-28T12:19:50.032Z,13.20
2019-03-28T12:22:18.172Z,13.03
2019-03-28T12:24:46.800Z,12.35
2019-03-28T12:27:14.529Z,9.78
2019-03-28T12:29:43.275Z,9.63
2019-03-28T12:32:14.315Z,9.80
2019-03-28T12:34:41.483Z,9.68
2019-03-28T12:37:09.226Z,10.95
2019-03-28T12:39:36.949Z,12.28
2019-03-28T12:42:04.972Z,13.40
2019-03-28T12:44:33.083Z,14.13
2019-03-28T12:47:01.328Z,14.25
2019-03-28T12:49:29.106Z,15.15
2019-03-28T12:51:57.471Z,16.60
2019-03-28T12:54:25.227Z,16.10
2019-03-28T12:56:52.949Z,15.50
2019-03-28T12:59:20.985Z,16.32
2019-03-28T13:01:48.876Z,16.32
2019-03-28T13:04:16.954Z,15.45
2019-03-28T13:06:44.646Z,15.23
2019-03-28T13:09:14.527Z,15.40
2019-03-28T13:11:43.832Z,15.28
2019-03-28T13:14:12.604Z,16.25
2019-03-28T13:16:40.421Z,16.07
2019-03-28T13:19:08.307Z,18.57
2019-03-28T13:21:36.036Z,18.23
2019-03-28T13:24:03.864Z,17.85
2019-03-28T13:26:31.695Z,18.35
2019-03-28T13:28:59.972Z,17.90
2019-03-28T13:31:28.131Z,16.75
2019-03-28T13:33:56.547Z,16.23
2019-03-28T13:36:24.267Z,16.27
2019-03-28T13:38:52.379Z,16.35
2019-03-28T13:41:20.442Z,18.07
2019-03-28T13:43:48.510Z,18.15
2019-03-28T13:46:16.892Z,17.75
2019-03-28T13:48:44.674Z,18.55
2019-03-28T13:51:12.651Z,17.20
2019-03-28T13:53:40.482Z,17.42
2019-03-28T13:56:08.533Z,17.02
2019-03-28T13:58:36.256Z,18.12
2019-03-28T14:01:03.983Z,16.85
2019-03-28T14:03:31.980Z,17.15
2019-03-28T14:06:14.417Z,17.42
2019-03-28T14:08:42.780Z,17.48
2019-03-28T14:11:10.638Z,17.42
2019-03-28T14:13:38.370Z,16.85
2019-03-28T14:16:06.108Z,18.00
2019-03-28T14:18:34.514Z,18.65
2019-03-28T14:21:02.588Z,16.93
2019-03-28T14:23:30.330Z,17.52
2019-03-28T14:25:58.370Z,17.52
2019-03-28T14:28:26.730Z,17.27
2019-03-28T14:30:54.483Z,17.42
2019-03-28T14:33:22.521Z,18.17
2019-03-28T14:35:50.596Z,18.73
2019-03-28T14:38:19.543Z,17.57
2019-03-28T14:40:47.315Z,18.95
2019-03-28T14:43:15.643Z,17.52
2019-03-28T14:45:43.404Z,15.93
2019-03-28T14:48:11.178Z,14.73
2019-03-28T14:50:39.658Z,13.78
2019-03-28T14:53:07.559Z,14.35
2019-03-28T14:55:35.515Z,14.15
2019-03-28T14:58:04.590Z,16.20
2019-03-28T15:00:46.703Z,16.95
2019-03-28T15:03:25.008Z,18.77
2019-03-28T15:05:43.992Z,18.12
2019-03-28T15:08:12.287Z,19.23
2019-03-28T15:10:40.084Z,19.02
2019-03-28T15:13:07.847Z,18.00
2019-03-28T15:15:35.621Z,16.48
2019-03-28T15:18:03.945Z,18.12
2019-03-28T15:20:32.290Z,19.73
2019-03-28T15:23:00.051Z,17.92
2019-03-28T15:25:28.115Z,16.45
2019-03-28T15:27:55.846Z,17.30
2019-03-28T15:30:23.603Z,16.52
2019-03-28T15:32:51.598Z,15.15
2019-03-28T15:35:19.974Z,15.05
2019-03-28T15:37:47.959Z,15.98
2019-03-28T15:40:16.328Z,15.95
2019-03-28T15:42:44.057Z,14.95
2019-03-28T15:45:11.910Z,16.23
2019-03-28T15:47:39.946Z,15.68
2019-03-28T15:50:08.959Z,15.48
2019-03-28T15:52:36.696Z,16.85
2019-03-28T15:55:04.728Z,15.88
2019-03-28T15:57:32.794Z,17.25
2019-03-28T16:00:00.936Z,17.82
2019-03-28T16:02:29.945Z,15.03
2019-03-28T16:04:59.231Z,15.58
2019-03-28T16:07:29.464Z,16.45
2019-03-28T16:09:57.254Z,15.58
2019-03-28T16:12:24.966Z,14.40
2019-03-28T16:14:52.678Z,15.40
2019-03-28T16:17:21.633Z,15.60
2019-03-28T16:19:49.665Z,15.38
2019-03-28T16:22:17.622Z,14.98
2019-03-28T16:24:46.616Z,15.30
2019-03-28T16:27:14.799Z,17.25
2019-03-28T16:29:42.517Z,15.85
2019-03-28T16:32:10.285Z,14.18
2019-03-28T16:34:38.310Z,14.75
2019-03-28T16:37:06.391Z,14.93
2019-03-28T16:39:34.768Z,15.93
2019-03-28T16:42:02.846Z,15.75
2019-03-28T16:44:31.244Z,15.55
2019-03-28T16:46:59.282Z,15.05
2019-03-28T16:49:26.998Z,15.45
2019-03-28T16:51:54.810Z,15.53
2019-03-28T16:54:22.667Z,16.10
2019-03-28T16:56:50.995Z,14.63
2019-03-28T16:59:19.076Z,15.28
2019-03-28T17:01:47.127Z,14.18
2019-03-28T17:04:21.062Z,14.30
2019-03-28T17:06:45.258Z,14.47
2019-03-28T17:09:13.326Z,14.80
2019-03-28T17:11:41.698Z,12.80
2019-03-28T17:14:11.215Z,14.38
2019-03-28T17:16:39.378Z,12.55
2019-03-28T17:19:07.100Z,13.28
2019-03-28T17:21:35.465Z,13.90
2019-03-28T17:24:03.403Z,13.95
2019-03-28T17:26:31.123Z,13.88
2019-03-28T17:28:59.161Z,13.45
2019-03-28T17:31:27.744Z,13.95
2019-03-28T17:33:55.715Z,13.60
2019-03-28T17:36:26.690Z,13.55
2019-03-28T17:38:55.043Z,14.10
2019-03-28T17:41:23.427Z,12.80
2019-03-28T17:43:51.177Z,14.40
2019-03-28T17:46:19.605Z,13.40
2019-03-28T17:48:47.675Z,13.58
2019-03-28T17:51:15.390Z,14.75
2019-03-28T17:53:43.804Z,15.28
2019-03-28T17:56:11.872Z,14.90
2019-03-28T17:58:39.580Z,15.23
2019-03-28T18:01:07.556Z,14.45
2019-03-28T18:03:35.707Z,14.83
2019-03-28T18:06:03.780Z,14.23
2019-03-28T18:08:31.507Z,13.95
2019-03-28T18:11:01.120Z,13.93
2019-03-28T18:13:29.652Z,14.85
2019-03-28T18:15:58.607Z,14.23
2019-03-28T18:18:26.778Z,14.95
2019-03-28T18:20:54.517Z,13.93
2019-03-28T18:23:22.251Z,14.05
2019-03-28T18:25:50.639Z,15.53
2019-03-28T18:28:18.702Z,13.48
2019-03-28T18:30:46.815Z,12.90
2019-03-28T18:33:14.538Z,14.53
2019-03-28T18:35:42.868Z,14.23
2019-03-28T18:38:10.916Z,14.28
2019-03-28T18:40:38.963Z,14.85
2019-03-28T18:43:06.690Z,13.48
2019-03-28T18:45:34.738Z,15.32
2019-03-28T18:48:02.846Z,14.93
2019-03-28T18:50:30.550Z,14.93
2019-03-28T18:52:58.254Z,15.72
2019-03-28T18:55:26.002Z,16.57
2019-03-28T18:57:54.116Z,16.23
2019-03-28T19:00:22.418Z,15.48
2019-03-28T19:02:50.080Z,15.23
2019-03-28T19:05:19.937Z,14.65
2019-03-28T19:07:47.714Z,15.98
2019-03-28T19:10:15.699Z,16.60
2019-03-28T19:12:43.985Z,16.50
2019-03-28T19:15:11.974Z,16.65
2019-03-28T19:17:40.005Z,16.70
2019-03-28T19:20:09.996Z,16.42
2019-03-28T19:22:38.602Z,17.48
2019-03-28T19:25:09.525Z,16.62
2019-03-28T19:27:37.950Z,17.70
2019-03-28T19:30:18.287Z,16.62
2019-03-28T19:32:45.997Z,15.90
2019-03-28T19:35:13.710Z,17.37
2019-03-28T19:37:42.193Z,16.70
2019-03-28T19:40:10.652Z,18.02
2019-03-28T19:42:38.589Z,15.95
2019-03-28T19:45:07.344Z,18.48
2019-03-28T19:47:35.380Z,18.90
2019-03-28T19:50:04.021Z,18.37
2019-03-28T19:52:33.057Z,17.42
2019-03-28T19:55:02.106Z,18.30
2019-03-28T19:57:50.379Z,17.85
2019-03-28T20:00:18.209Z,18.92
2019-03-28T20:02:46.058Z,17.23
2019-03-28T20:05:15.019Z,15.85
2019-03-28T20:07:45.682Z,18.17
2019-03-28T20:10:16.739Z,16.97
2019-03-28T20:12:42.499Z,17.17
2019-03-28T20:15:10.818Z,18.02
2019-03-28T20:17:38.586Z,18.45
2019-03-28T20:20:06.723Z,18.30
2019-03-28T20:22:34.836Z,19.55
2019-03-28T20:25:02.633Z,18.32
2019-03-28T20:27:31.473Z,18.73
2019-03-28T20:30:00.951Z,20.17
2019-03-28T20:32:29.394Z,17.73
2019-03-28T20:34:57.361Z,18.40
2019-03-28T20:37:26.039Z,18.92
2019-03-28T20:39:53.899Z,19.50
2019-03-28T20:42:21.622Z,18.62
2019-03-28T20:44:49.748Z,18.90
2019-03-28T20:47:17.849Z,18.80
2019-03-28T20:49:46.950Z,18.90
2019-03-28T20:52:15.182Z,17.85
2019-03-28T20:54:45.673Z,18.25
2019-03-28T20:57:15.439Z,18.05
2019-03-28T20:59:47.222Z,18.60
2019-03-28T21:02:18.593Z,17.27
2019-03-28T21:04:52.149Z,18.15
2019-03-28T21:07:24.609Z,17.62
2019-03-28T21:09:53.081Z,16.90
2019-03-28T21:12:20.782Z,16.23
2019-03-28T21:14:48.847Z,16.45
2019-03-28T21:17:16.618Z,17.57
2019-03-28T21:19:44.878Z,17.20
2019-03-28T21:22:13.171Z,18.07
2019-03-28T21:24:41.627Z,17.85
2019-03-28T21:27:09.377Z,18.48
2019-03-28T21:29:48.232Z,17.80
2019-03-28T21:32:08.598Z,18.37
2019-03-28T21:34:38.307Z,16.75
2019-03-28T21:37:08.824Z,17.52
2019-03-28T21:39:40.141Z,17.25
2019-03-28T21:42:08.626Z,16.65
2019-03-28T21:44:48.783Z,15.65
2019-03-28T21:47:17.223Z,18.02
2019-03-28T21:49:45.302Z,16.57
2019-03-28T21:52:14.305Z,17.48
2019-03-28T21:54:42.678Z,15.65
2019-03-28T21:57:10.447Z,16.12
2019-03-28T21:59:39.239Z,15.58
2019-03-28T22:02:06.986Z,17.07
2019-03-28T22:04:35.065Z,16.52
2019-03-28T22:07:03.125Z,15.65
2019-03-28T22:09:30.820Z,15.13
2019-03-28T22:12:00.769Z,16.00
2019-03-28T22:14:28.220Z,15.68
2019-03-28T22:16:56.152Z,16.12
2019-03-28T22:19:25.885Z,14.68
2019-03-28T22:21:53.798Z,15.80
2019-03-28T22:24:21.783Z,15.40
2019-03-28T22:26:49.738Z,15.60
2019-03-28T22:29:17.825Z,15.68
2019-03-28T22:31:47.684Z,15.08
2019-03-28T22:34:19.444Z,15.53
2019-03-28T22:36:59.996Z,15.53
2019-03-28T22:39:29.042Z,15.33
2019-03-28T22:41:57.222Z,14.68
2019-03-28T22:44:25.873Z,15.48
2019-03-28T22:46:54.036Z,15.07
2019-03-28T22:49:23.422Z,15.40
2019-03-28T22:51:51.682Z,14.40
2019-03-28T22:54:19.862Z,15.58
2019-03-28T22:56:48.117Z,16.65
2019-03-28T22:59:16.182Z,15.35
2019-03-28T23:01:43.938Z,16.47
2019-03-28T23:04:13.001Z,16.90
2019-03-28T23:06:41.098Z,15.58
2019-03-28T23:09:08.866Z,17.03
2019-03-28T23:11:36.617Z,15.60
2019-03-28T23:14:04.383Z,15.93
2019-03-28T23:16:32.410Z,15.85
2019-03-28T23:19:00.206Z,16.97
2019-03-28T23:21:27.995Z,16.60
2019-03-28T23:23:55.722Z,16.90
2019-03-28T23:26:27.166Z,16.13
2019-03-28T23:28:55.594Z,17.73
2019-03-28T23:31:33.957Z,17.17
2019-03-28T23:34:02.959Z,16.47
2019-03-28T23:36:30.883Z,16.73
2019-03-28T23:38:58.643Z,17.10
2019-03-28T23:41:26.582Z,17.70
2019-03-28T23:43:54.716Z,16.73
2019-03-28T23:46:22.792Z,17.13
2019-03-28T23:48:50.546Z,17.10
2019-03-28T23:51:18.676Z,16.20
2019-03-28T23:53:47.376Z,16.17
2019-03-28T23:56:15.611Z,16.57
2019-03-28T23:58:43.631Z,17.17
